Terminal Aerodrome Forecast
Issued by NWS Pocatello, ID

Home | Current Version | Previous Version | Text Only | Print | Product List | Glossary On
Versions: 1 2 3 4 5 6 7 8 9 10 11 12 13 14 15 16 17 18 19 20
000
FTUS45 KPIH 280700 AAA
TAFBYI
TAF AMD
KBYI 280702Z 2807/2906 22011KT 6SM -SN BKN025 OVC035
     FM280900 23014KT 3SM -SN SCT008 OVC020
     FM281200 25015G22KT 1SM -SN OVC008
     FM281800 26020G28KT 2SM -SN BLSN OVC012
     FM290200 24013KT P6SM BKN012 OVC030=

USA.gov is the U.S. government's official web portal to all federal, state and local government web resources and services.